sensor_id;sensor_type;location;lat;lon;timestamp;pressure;altitude;pressure_sealevel;temperature;humidity
74868;BME280;63419;42.262;12.210;2023-07-31T00:02:10;97338.94;;;25.24;100.00
74868;BME280;63419;42.262;12.210;2023-07-31T00:04:36;97329.91;;;25.33;100.00
74868;BME280;63419;42.262;12.210;2023-07-31T00:07:03;97317.84;;;25.72;100.00
74868;BME280;63419;42.262;12.210;2023-07-31T00:09:30;97327.34;;;25.12;100.00
74868;BME280;63419;42.262;12.210;2023-07-31T00:11:56;97348.19;;;24.72;100.00
74868;BME280;63419;42.262;12.210;2023-07-31T00:14:22;97369.91;;;24.74;100.00
74868;BME280;63419;42.262;12.210;2023-07-31T00:16:48;97322.09;;;25.60;100.00
74868;BME280;63419;42.262;12.210;2023-07-31T00:19:14;97322.34;;;25.85;100.00
74868;BME280;63419;42.262;12.210;2023-07-31T00:21:40;97306.16;;;26.35;100.00
74868;BME280;63419;42.262;12.210;2023-07-31T00:24:06;97297.19;;;26.43;100.00
74868;BME280;63419;42.262;12.210;2023-07-31T00:26:33;97287.22;;;26.78;100.00
74868;BME280;63419;42.262;12.210;2023-07-31T00:28:59;97278.44;;;26.84;100.00
74868;BME280;63419;42.262;12.210;2023-07-31T00:31:25;97295.16;;;26.45;100.00
74868;BME280;63419;42.262;12.210;2023-07-31T00:33:51;97272.34;;;26.77;100.00
74868;BME280;63419;42.262;12.210;2023-07-31T00:36:17;97260.47;;;27.06;100.00
74868;BME280;63419;42.262;12.210;2023-07-31T00:38:44;97267.88;;;26.77;100.00
74868;BME280;63419;42.262;12.210;2023-07-31T00:41:10;97274.16;;;26.83;100.00
74868;BME280;63419;42.262;12.210;2023-07-31T00:43:35;97275.63;;;26.72;100.00
74868;BME280;63419;42.262;12.210;2023-07-31T00:46:02;97282.34;;;26.48;100.00
74868;BME280;63419;42.262;12.210;2023-07-31T00:48:28;97278.88;;;26.68;100.00
74868;BME280;63419;42.262;12.210;2023-07-31T00:50:54;97263.69;;;27.08;100.00
74868;BME280;63419;42.262;12.210;2023-07-31T00:53:21;97264.41;;;26.57;100.00
74868;BME280;63419;42.262;12.210;2023-07-31T00:55:47;97272.78;;;26.74;100.00
74868;BME280;63419;42.262;12.210;2023-07-31T00:58:13;97270.28;;;26.92;100.00
74868;BME280;63419;42.262;12.210;2023-07-31T01:00:40;97272.34;;;26.84;100.00
74868;BME280;63419;42.262;12.210;2023-07-31T01:03:06;97261.91;;;26.95;100.00
74868;BME280;63419;42.262;12.210;2023-07-31T01:08:44;97261.28;;;27.00;100.00
74868;BME280;63419;42.262;12.210;2023-07-31T01:11:25;97267.63;;;26.86;100.00
74868;BME280;63419;42.262;12.210;2023-07-31T01:13:55;97262.13;;;26.94;100.00
74868;BME280;63419;42.262;12.210;2023-07-31T01:16:21;97260.75;;;26.78;100.00
74868;BME280;63419;42.262;12.210;2023-07-31T01:18:48;97258.69;;;26.80;100.00
74868;BME280;63419;42.262;12.210;2023-07-31T01:21:48;97249.09;;;26.92;100.00
74868;BME280;63419;42.262;12.210;2023-07-31T01:27:24;97245.69;;;26.52;100.00
74868;BME280;63419;42.262;12.210;2023-07-31T01:30:05;97251.22;;;26.37;100.00
74868;BME280;63419;42.262;12.210;2023-07-31T01:32:40;97259.38;;;26.35;100.00
74868;BME280;63419;42.262;12.210;2023-07-31T01:35:08;97260.78;;;26.38;100.00
74868;BME280;63419;42.262;12.210;2023-07-31T01:37:35;97268.94;;;26.36;100.00
74868;BME280;63419;42.262;12.210;2023-07-31T01:40:01;97257.31;;;26.51;100.00
74868;BME280;63419;42.262;12.210;2023-07-31T01:42:27;97261.81;;;26.30;100.00
74868;BME280;63419;42.262;12.210;2023-07-31T01:44:53;97252.06;;;26.17;100.00
74868;BME280;63419;42.262;12.210;2023-07-31T01:47:19;97243.84;;;26.52;100.00
74868;BME280;63419;42.262;12.210;2023-07-31T01:49:45;97235.09;;;26.72;100.00
74868;BME280;63419;42.262;12.210;2023-07-31T01:52:11;97264.78;;;25.74;100.00
74868;BME280;63419;42.262;12.210;2023-07-31T01:54:37;97264.16;;;25.58;100.00
74868;BME280;63419;42.262;12.210;2023-07-31T01:57:03;97293.56;;;25.35;100.00
74868;BME280;63419;42.262;12.210;2023-07-31T01:59:29;97315.69;;;23.78;100.00
74868;BME280;63419;42.262;12.210;2023-07-31T02:01:55;97298.63;;;24.67;100.00
74868;BME280;63419;42.262;12.210;2023-07-31T02:04:22;97256.66;;;25.62;100.00
74868;BME280;63419;42.262;12.210;2023-07-31T02:06:48;97241.47;;;26.04;100.00
74868;BME280;63419;42.262;12.210;2023-07-31T02:09:14;97248.75;;;25.89;100.00
74868;BME280;63419;42.262;12.210;2023-07-31T02:11:40;97243.09;;;26.05;100.00
74868;BME280;63419;42.262;12.210;2023-07-31T02:14:06;97249.22;;;25.99;100.00
74868;BME280;63419;42.262;12.210;2023-07-31T02:16:32;97237.81;;;26.18;100.00
74868;BME280;63419;42.262;12.210;2023-07-31T02:18:58;97229.22;;;26.43;100.00
74868;BME280;63419;42.262;12.210;2023-07-31T02:21:25;97236.59;;;26.08;100.00
74868;BME280;63419;42.262;12.210;2023-07-31T02:23:51;97257.09;;;25.72;100.00
74868;BME280;63419;42.262;12.210;2023-07-31T02:26:17;97276.19;;;24.78;100.00
74868;BME280;63419;42.262;12.210;2023-07-31T02:28:43;97282.25;;;24.72;100.00
74868;BME280;63419;42.262;12.210;2023-07-31T02:31:09;97253.25;;;25.20;100.00
74868;BME280;63419;42.262;12.210;2023-07-31T02:33:36;97264.63;;;24.79;100.00
74868;BME280;63419;42.262;12.210;2023-07-31T02:36:02;97292.50;;;23.88;100.00
74868;BME280;63419;42.262;12.210;2023-07-31T02:38:28;97301.84;;;24.12;100.00
74868;BME280;63419;42.262;12.210;2023-07-31T02:40:54;97291.97;;;24.43;100.00
74868;BME280;63419;42.262;12.210;2023-07-31T02:43:21;97264.72;;;24.99;100.00
74868;BME280;63419;42.262;12.210;2023-07-31T02:45:53;97239.38;;;25.66;100.00
74868;BME280;63419;42.262;12.210;2023-07-31T02:48:20;97219.94;;;25.94;100.00
74868;BME280;63419;42.262;12.210;2023-07-31T02:50:47;97224.09;;;25.48;100.00
74868;BME280;63419;42.262;12.210;2023-07-31T02:53:14;97225.56;;;25.77;100.00
74868;BME280;63419;42.262;12.210;2023-07-31T02:55:40;97216.63;;;25.92;100.00
74868;BME280;63419;42.262;12.210;2023-07-31T02:58:07;97208.75;;;26.05;100.00
74868;BME280;63419;42.262;12.210;2023-07-31T03:00:33;97197.94;;;26.40;100.00
74868;BME280;63419;42.262;12.210;2023-07-31T03:02:59;97202.22;;;26.28;100.00
74868;BME280;63419;42.262;12.210;2023-07-31T03:05:25;97188.75;;;26.49;100.00
74868;BME280;63419;42.262;12.210;2023-07-31T03:07:51;97188.16;;;26.47;100.00
74868;BME280;63419;42.262;12.210;2023-07-31T03:10:17;97175.69;;;26.68;100.00
74868;BME280;63419;42.262;12.210;2023-07-31T03:12:47;97171.81;;;26.70;100.00
74868;BME280;63419;42.262;12.210;2023-07-31T03:15:14;97176.03;;;26.85;100.00
74868;BME280;63419;42.262;12.210;2023-07-31T03:17:40;97166.03;;;27.25;100.00
74868;BME280;63419;42.262;12.210;2023-07-31T03:20:07;97172.97;;;27.33;100.00
74868;BME280;63419;42.262;12.210;2023-07-31T03:22:34;97172.38;;;27.24;100.00
74868;BME280;63419;42.262;12.210;2023-07-31T03:25:02;97170.34;;;27.20;100.00
74868;BME280;63419;42.262;12.210;2023-07-31T03:27:29;97172.00;;;27.21;100.00
74868;BME280;63419;42.262;12.210;2023-07-31T03:29:55;97206.44;;;25.55;100.00
74868;BME280;63419;42.262;12.210;2023-07-31T03:32:21;97184.31;;;26.30;100.00
74868;BME280;63419;42.262;12.210;2023-07-31T03:34:47;97166.16;;;26.67;100.00
74868;BME280;63419;42.262;12.210;2023-07-31T03:37:13;97158.31;;;26.85;100.00
74868;BME280;63419;42.262;12.210;2023-07-31T03:39:39;97158.72;;;26.82;100.00
74868;BME280;63419;42.262;12.210;2023-07-31T03:42:06;97163.25;;;26.75;100.00
74868;BME280;63419;42.262;12.210;2023-07-31T03:44:32;97156.44;;;26.99;100.00
74868;BME280;63419;42.262;12.210;2023-07-31T03:46:58;97164.50;;;26.59;100.00
74868;BME280;63419;42.262;12.210;2023-07-31T03:49:25;97154.09;;;26.71;100.00
74868;BME280;63419;42.262;12.210;2023-07-31T03:51:51;97163.72;;;26.45;100.00
74868;BME280;63419;42.262;12.210;2023-07-31T03:54:17;97152.72;;;26.62;100.00
74868;BME280;63419;42.262;12.210;2023-07-31T03:56:43;97161.31;;;26.44;100.00
74868;BME280;63419;42.262;12.210;2023-07-31T03:59:09;97162.47;;;26.68;100.00
74868;BME280;63419;42.262;12.210;2023-07-31T04:01:35;97156.56;;;26.59;100.00
74868;BME280;63419;42.262;12.210;2023-07-31T04:04:01;97161.03;;;26.58;100.00
74868;BME280;63419;42.262;12.210;2023-07-31T04:06:28;97155.03;;;26.31;100.00
74868;BME280;63419;42.262;12.210;2023-07-31T04:08:54;97213.97;;;23.77;100.00
74868;BME280;63419;42.262;12.210;2023-07-31T04:11:21;97250.66;;;22.91;100.00
74868;BME280;63419;42.262;12.210;2023-07-31T04:13:47;97252.38;;;22.98;100.00
74868;BME280;63419;42.262;12.210;2023-07-31T04:16:13;97241.00;;;23.86;100.00
74868;BME280;63419;42.262;12.210;2023-07-31T04:18:39;97215.59;;;24.56;100.00
74868;BME280;63419;42.262;12.210;2023-07-31T04:21:05;97217.75;;;24.81;100.00
74868;BME280;63419;42.262;12.210;2023-07-31T04:23:32;97213.19;;;25.03;100.00
74868;BME280;63419;42.262;12.210;2023-07-31T04:25:58;97195.03;;;25.41;100.00
74868;BME280;63419;42.262;12.210;2023-07-31T04:28:24;97184.72;;;25.87;100.00
74868;BME280;63419;42.262;12.210;2023-07-31T04:30:54;97192.88;;;26.05;100.00
74868;BME280;63419;42.262;12.210;2023-07-31T04:33:21;97188.81;;;26.16;100.00
74868;BME280;63419;42.262;12.210;2023-07-31T04:35:52;97187.34;;;26.27;100.00
74868;BME280;63419;42.262;12.210;2023-07-31T04:38:22;97170.31;;;26.02;100.00
74868;BME280;63419;42.262;12.210;2023-07-31T04:40:48;97179.22;;;26.21;100.00
74868;BME280;63419;42.262;12.210;2023-07-31T04:43:14;97163.94;;;26.44;100.00
74868;BME280;63419;42.262;12.210;2023-07-31T04:45:45;97167.97;;;26.53;100.00
74868;BME280;63419;42.262;12.210;2023-07-31T04:48:13;97177.19;;;26.37;100.00
74868;BME280;63419;42.262;12.210;2023-07-31T04:50:40;97166.59;;;26.37;100.00
74868;BME280;63419;42.262;12.210;2023-07-31T04:53:06;97170.28;;;25.42;100.00
74868;BME280;63419;42.262;12.210;2023-07-31T04:55:32;97166.84;;;26.15;100.00
74868;BME280;63419;42.262;12.210;2023-07-31T04:57:59;97157.75;;;26.70;100.00
74868;BME280;63419;42.262;12.210;2023-07-31T05:00:25;97144.81;;;27.00;100.00
74868;BME280;63419;42.262;12.210;2023-07-31T05:02:51;97147.97;;;27.15;100.00
74868;BME280;63419;42.262;12.210;2023-07-31T05:05:17;97152.63;;;26.88;100.00
74868;BME280;63419;42.262;12.210;2023-07-31T05:07:43;97154.59;;;27.00;100.00
74868;BME280;63419;42.262;12.210;2023-07-31T05:10:10;97148.41;;;27.12;100.00
74868;BME280;63419;42.262;12.210;2023-07-31T05:12:36;97148.53;;;26.86;100.00
74868;BME280;63419;42.262;12.210;2023-07-31T05:15:02;97137.19;;;27.17;100.00
74868;BME280;63419;42.262;12.210;2023-07-31T05:17:29;97124.56;;;27.51;100.00
74868;BME280;63419;42.262;12.210;2023-07-31T05:19:54;97123.41;;;27.65;100.00
74868;BME280;63419;42.262;12.210;2023-07-31T05:22:21;97121.84;;;27.83;100.00
74868;BME280;63419;42.262;12.210;2023-07-31T05:24:47;97113.66;;;28.09;100.00
74868;BME280;63419;42.262;12.210;2023-07-31T05:27:14;97119.75;;;27.91;100.00
74868;BME280;63419;42.262;12.210;2023-07-31T05:29:44;97116.94;;;27.61;100.00
74868;BME280;63419;42.262;12.210;2023-07-31T05:32:10;97126.13;;;27.59;100.00
74868;BME280;63419;42.262;12.210;2023-07-31T05:34:36;97114.41;;;28.35;100.00
74868;BME280;63419;42.262;12.210;2023-07-31T05:37:03;97110.44;;;28.63;100.00
74868;BME280;63419;42.262;12.210;2023-07-31T05:39:28;97101.28;;;28.40;100.00
74868;BME280;63419;42.262;12.210;2023-07-31T05:41:55;97101.44;;;28.64;100.00
74868;BME280;63419;42.262;12.210;2023-07-31T05:44:21;97108.66;;;28.57;100.00
74868;BME280;63419;42.262;12.210;2023-07-31T05:46:47;97102.94;;;28.90;100.00
74868;BME280;63419;42.262;12.210;2023-07-31T05:49:14;97106.75;;;28.64;100.00
74868;BME280;63419;42.262;12.210;2023-07-31T05:51:40;97102.97;;;29.02;100.00
74868;BME280;63419;42.262;12.210;2023-07-31T05:54:06;97095.91;;;28.96;100.00
74868;BME280;63419;42.262;12.210;2023-07-31T05:56:32;97105.19;;;28.75;100.00
74868;BME280;63419;42.262;12.210;2023-07-31T05:59:00;97103.88;;;28.96;100.00
74868;BME280;63419;42.262;12.210;2023-07-31T06:01:26;97107.47;;;29.20;100.00
74868;BME280;63419;42.262;12.210;2023-07-31T06:03:53;97109.81;;;29.40;100.00
74868;BME280;63419;42.262;12.210;2023-07-31T06:06:19;97106.69;;;29.55;100.00
74868;BME280;63419;42.262;12.210;2023-07-31T06:08:46;97113.84;;;29.12;100.00
74868;BME280;63419;42.262;12.210;2023-07-31T06:11:12;97117.28;;;28.71;100.00
74868;BME280;63419;42.262;12.210;2023-07-31T06:13:39;97101.69;;;29.35;100.00
74868;BME280;63419;42.262;12.210;2023-07-31T06:16:05;97112.97;;;28.88;100.00
74868;BME280;63419;42.262;12.210;2023-07-31T06:18:32;97101.25;;;29.38;100.00
74868;BME280;63419;42.262;12.210;2023-07-31T06:20:59;97112.47;;;28.79;100.00
74868;BME280;63419;42.262;12.210;2023-07-31T06:23:26;97103.66;;;29.28;100.00
74868;BME280;63419;42.262;12.210;2023-07-31T06:25:52;97109.50;;;29.18;100.00
74868;BME280;63419;42.262;12.210;2023-07-31T06:28:19;97102.88;;;29.62;100.00
74868;BME280;63419;42.262;12.210;2023-07-31T06:30:45;97100.69;;;29.48;100.00
74868;BME280;63419;42.262;12.210;2023-07-31T06:33:11;97103.03;;;29.79;100.00
74868;BME280;63419;42.262;12.210;2023-07-31T06:35:38;97102.66;;;29.52;100.00
74868;BME280;63419;42.262;12.210;2023-07-31T06:38:04;97100.28;;;29.86;100.00
74868;BME280;63419;42.262;12.210;2023-07-31T06:40:30;97095.16;;;30.08;100.00
74868;BME280;63419;42.262;12.210;2023-07-31T06:43:00;97101.09;;;29.98;100.00
74868;BME280;63419;42.262;12.210;2023-07-31T06:45:35;97098.19;;;29.88;100.00
74868;BME280;63419;42.262;12.210;2023-07-31T06:48:03;97096.41;;;30.29;100.00
74868;BME280;63419;42.262;12.210;2023-07-31T06:50:31;97098.75;;;30.38;100.00
74868;BME280;63419;42.262;12.210;2023-07-31T06:52:58;97102.22;;;30.03;100.00
74868;BME280;63419;42.262;12.210;2023-07-31T06:55:25;97095.03;;;30.15;100.00
74868;BME280;63419;42.262;12.210;2023-07-31T06:57:54;97092.06;;;30.64;100.00
74868;BME280;63419;42.262;12.210;2023-07-31T07:00:23;97095.19;;;30.61;100.00
74868;BME280;63419;42.262;12.210;2023-07-31T07:02:50;97094.78;;;30.52;100.00
74868;BME280;63419;42.262;12.210;2023-07-31T07:05:18;97102.44;;;30.36;100.00
74868;BME280;63419;42.262;12.210;2023-07-31T07:07:45;97086.88;;;31.31;100.00
74868;BME280;63419;42.262;12.210;2023-07-31T07:10:11;97090.44;;;31.37;100.00
74868;BME280;63419;42.262;12.210;2023-07-31T07:12:37;97100.78;;;31.17;100.00
74868;BME280;63419;42.262;12.210;2023-07-31T07:15:05;97095.75;;;31.37;100.00
74868;BME280;63419;42.262;12.210;2023-07-31T07:17:31;97098.31;;;31.61;100.00
74868;BME280;63419;42.262;12.210;2023-07-31T07:19:59;97092.25;;;31.65;100.00
74868;BME280;63419;42.262;12.210;2023-07-31T07:22:26;97093.13;;;31.71;100.00
74868;BME280;63419;42.262;12.210;2023-07-31T07:24:53;97106.44;;;31.37;100.00
74868;BME280;63419;42.262;12.210;2023-07-31T07:27:20;97104.03;;;31.86;100.00
74868;BME280;63419;42.262;12.210;2023-07-31T07:29:47;97088.53;;;32.44;100.00
74868;BME280;63419;42.262;12.210;2023-07-31T07:32:15;97097.28;;;32.18;100.00
74868;BME280;63419;42.262;12.210;2023-07-31T07:34:43;97098.47;;;32.27;100.00
74868;BME280;63419;42.262;12.210;2023-07-31T07:37:09;97097.66;;;32.49;100.00
74868;BME280;63419;42.262;12.210;2023-07-31T07:39:36;97089.09;;;32.69;100.00
74868;BME280;63419;42.262;12.210;2023-07-31T07:42:04;97094.97;;;32.49;100.00
74868;BME280;63419;42.262;12.210;2023-07-31T07:44:30;97084.81;;;32.68;100.00
74868;BME280;63419;42.262;12.210;2023-07-31T07:46:56;97095.19;;;32.64;100.00
74868;BME280;63419;42.262;12.210;2023-07-31T07:49:23;97090.66;;;32.65;100.00
74868;BME280;63419;42.262;12.210;2023-07-31T07:51:50;97089.19;;;33.06;100.00
74868;BME280;63419;42.262;12.210;2023-07-31T07:54:16;97092.59;;;32.96;100.00
74868;BME280;63419;42.262;12.210;2023-07-31T07:56:43;97076.91;;;33.32;100.00
74868;BME280;63419;42.262;12.210;2023-07-31T07:59:09;97077.91;;;33.64;100.00
74868;BME280;63419;42.262;12.210;2023-07-31T08:01:36;97076.91;;;33.32;100.00
74868;BME280;63419;42.262;12.210;2023-07-31T08:04:02;97074.00;;;33.12;100.00
74868;BME280;63419;42.262;12.210;2023-07-31T08:06:28;97081.31;;;32.67;100.00
74868;BME280;63419;42.262;12.210;2023-07-31T08:08:56;97076.09;;;33.32;100.00
74868;BME280;63419;42.262;12.210;2023-07-31T08:11:23;97070.06;;;32.87;100.00
74868;BME280;63419;42.262;12.210;2023-07-31T08:13:50;97079.97;;;33.14;100.00
74868;BME280;63419;42.262;12.210;2023-07-31T08:16:16;97073.69;;;32.76;100.00
74868;BME280;63419;42.262;12.210;2023-07-31T08:18:43;97078.47;;;33.01;100.00
74868;BME280;63419;42.262;12.210;2023-07-31T08:21:09;97076.00;;;33.54;100.00
74868;BME280;63419;42.262;12.210;2023-07-31T08:23:36;97070.66;;;33.22;100.00
74868;BME280;63419;42.262;12.210;2023-07-31T08:26:02;97072.00;;;33.24;100.00
74868;BME280;63419;42.262;12.210;2023-07-31T08:28:28;97067.75;;;33.23;100.00
74868;BME280;63419;42.262;12.210;2023-07-31T08:30:55;97067.41;;;33.52;100.00
74868;BME280;63419;42.262;12.210;2023-07-31T08:33:21;97060.88;;;33.70;100.00
74868;BME280;63419;42.262;12.210;2023-07-31T08:35:48;97068.38;;;33.68;100.00
74868;BME280;63419;42.262;12.210;2023-07-31T08:38:15;97067.75;;;34.03;100.00
74868;BME280;63419;42.262;12.210;2023-07-31T08:40:41;97043.38;;;34.63;100.00
74868;BME280;63419;42.262;12.210;2023-07-31T08:43:09;97058.03;;;34.40;100.00
74868;BME280;63419;42.262;12.210;2023-07-31T08:45:37;97050.59;;;34.57;100.00
74868;BME280;63419;42.262;12.210;2023-07-31T08:48:05;97063.59;;;34.28;100.00
74868;BME280;63419;42.262;12.210;2023-07-31T08:50:31;97055.50;;;34.86;100.00
74868;BME280;63419;42.262;12.210;2023-07-31T08:52:58;97055.78;;;34.95;100.00
74868;BME280;63419;42.262;12.210;2023-07-31T08:55:26;97060.72;;;34.40;100.00
74868;BME280;63419;42.262;12.210;2023-07-31T08:57:54;97057.88;;;34.77;100.00
74868;BME280;63419;42.262;12.210;2023-07-31T09:00:23;97070.66;;;34.55;100.00
74868;BME280;63419;42.262;12.210;2023-07-31T09:03:00;97075.41;;;33.47;100.00
74868;BME280;63419;42.262;12.210;2023-07-31T09:05:31;97056.75;;;34.63;100.00
74868;BME280;63419;42.262;12.210;2023-07-31T09:07:58;97063.31;;;35.29;100.00
74868;BME280;63419;42.262;12.210;2023-07-31T09:10:24;97056.06;;;35.24;100.00
74868;BME280;63419;42.262;12.210;2023-07-31T09:12:52;97091.44;;;32.43;100.00
74868;BME280;63419;42.262;12.210;2023-07-31T09:15:20;97068.19;;;34.32;100.00
74868;BME280;63419;42.262;12.210;2023-07-31T09:17:48;97070.00;;;33.74;100.00
74868;BME280;63419;42.262;12.210;2023-07-31T09:20:24;97042.94;;;35.38;100.00
74868;BME280;63419;42.262;12.210;2023-07-31T09:22:51;97049.38;;;35.26;100.00
74868;BME280;63419;42.262;12.210;2023-07-31T09:25:25;97078.16;;;33.57;100.00
74868;BME280;63419;42.262;12.210;2023-07-31T09:28:00;97085.84;;;33.16;100.00
74868;BME280;63419;42.262;12.210;2023-07-31T09:30:27;97056.56;;;35.00;100.00
74868;BME280;63419;42.262;12.210;2023-07-31T09:33:05;97041.28;;;35.62;100.00
74868;BME280;63419;42.262;12.210;2023-07-31T09:35:35;97050.69;;;35.14;100.00
74868;BME280;63419;42.262;12.210;2023-07-31T09:38:09;97060.25;;;34.00;100.00
74868;BME280;63419;42.262;12.210;2023-07-31T09:40:40;97025.91;;;36.69;100.00
74868;BME280;63419;42.262;12.210;2023-07-31T09:43:09;97014.38;;;37.62;100.00
74868;BME280;63419;42.262;12.210;2023-07-31T09:45:40;97038.88;;;36.52;100.00
74868;BME280;63419;42.262;12.210;2023-07-31T09:48:09;97064.53;;;34.64;100.00
74868;BME280;63419;42.262;12.210;2023-07-31T09:50:39;97074.75;;;34.09;100.00
74868;BME280;63419;42.262;12.210;2023-07-31T09:53:08;97037.38;;;36.25;100.00
74868;BME280;63419;42.262;12.210;2023-07-31T09:55:36;97018.72;;;37.58;100.00
74868;BME280;63419;42.262;12.210;2023-07-31T09:58:08;97047.63;;;36.02;100.00
74868;BME280;63419;42.262;12.210;2023-07-31T10:00:35;97050.94;;;35.79;100.00
74868;BME280;63419;42.262;12.210;2023-07-31T10:03:08;97058.72;;;34.88;100.00
74868;BME280;63419;42.262;12.210;2023-07-31T10:05:40;97058.97;;;34.76;100.00
74868;BME280;63419;42.262;12.210;2023-07-31T10:08:12;97029.22;;;36.51;100.00
74868;BME280;63419;42.262;12.210;2023-07-31T10:10:45;97041.88;;;35.39;100.00
74868;BME280;63419;42.262;12.210;2023-07-31T10:13:14;97042.41;;;35.31;100.00
74868;BME280;63419;42.262;12.210;2023-07-31T10:15:41;97048.50;;;34.75;100.00
74868;BME280;63419;42.262;12.210;2023-07-31T10:18:09;97037.56;;;35.38;100.00
74868;BME280;63419;42.262;12.210;2023-07-31T10:20:37;97042.94;;;35.43;100.00
74868;BME280;63419;42.262;12.210;2023-07-31T10:23:03;97003.75;;;38.00;100.00
74868;BME280;63419;42.262;12.210;2023-07-31T10:25:32;97003.63;;;37.62;100.00
74868;BME280;63419;42.262;12.210;2023-07-31T10:27:59;97001.91;;;38.19;100.00
74868;BME280;63419;42.262;12.210;2023-07-31T10:30:30;97010.81;;;37.42;100.00
74868;BME280;63419;42.262;12.210;2023-07-31T10:32:59;97000.47;;;38.46;100.00
74868;BME280;63419;42.262;12.210;2023-07-31T10:35:27;97009.66;;;37.78;100.00
74868;BME280;63419;42.262;12.210;2023-07-31T10:37:54;96968.84;;;40.33;100.00
74868;BME280;63419;42.262;12.210;2023-07-31T10:40:27;96934.22;;;43.32;100.00
74868;BME280;63419;42.262;12.210;2023-07-31T10:42:56;96934.53;;;43.22;100.00
74868;BME280;63419;42.262;12.210;2023-07-31T10:45:43;96923.81;;;43.64;100.00
74868;BME280;63419;42.262;12.210;2023-07-31T10:48:17;96934.25;;;43.14;100.00
74868;BME280;63419;42.262;12.210;2023-07-31T10:50:52;96934.84;;;42.55;100.00
74868;BME280;63419;42.262;12.210;2023-07-31T10:53:32;96997.84;;;38.41;100.00
74868;BME280;63419;42.262;12.210;2023-07-31T10:56:01;97022.94;;;36.06;100.00
74868;BME280;63419;42.262;12.210;2023-07-31T10:58:28;97001.66;;;37.43;100.00
74868;BME280;63419;42.262;12.210;2023-07-31T11:00:58;96972.84;;;39.25;100.00
74868;BME280;63419;42.262;12.210;2023-07-31T11:03:40;96947.31;;;41.10;100.00
74868;BME280;63419;42.262;12.210;2023-07-31T11:06:07;96951.91;;;40.56;100.00
74868;BME280;63419;42.262;12.210;2023-07-31T11:08:43;96891.56;;;45.01;100.00
74868;BME280;63419;42.262;12.210;2023-07-31T11:11:14;96866.31;;;47.71;100.00
74868;BME280;63419;42.262;12.210;2023-07-31T11:13:48;96854.88;;;48.86;100.00
74868;BME280;63419;42.262;12.210;2023-07-31T11:16:17;96897.06;;;46.44;100.00
74868;BME280;63419;42.262;12.210;2023-07-31T11:18:46;96976.31;;;40.00;100.00
74868;BME280;63419;42.262;12.210;2023-07-31T11:24:02;97013.47;;;37.47;100.00
74868;BME280;63419;42.262;12.210;2023-07-31T11:26:29;97010.09;;;38.09;100.00
74868;BME280;63419;42.262;12.210;2023-07-31T11:28:56;96966.81;;;39.89;100.00
74868;BME280;63419;42.262;12.210;2023-07-31T11:31:23;96945.94;;;42.10;100.00
74868;BME280;63419;42.262;12.210;2023-07-31T11:33:49;97001.28;;;38.27;100.00
74868;BME280;63419;42.262;12.210;2023-07-31T11:36:18;96981.31;;;38.85;100.00
74868;BME280;63419;42.262;12.210;2023-07-31T11:38:46;96965.72;;;39.90;100.00
74868;BME280;63419;42.262;12.210;2023-07-31T11:41:16;96908.84;;;43.87;100.00
74868;BME280;63419;42.262;12.210;2023-07-31T11:43:42;97030.75;;;34.58;100.00
74868;BME280;63419;42.262;12.210;2023-07-31T11:46:09;97001.78;;;36.54;100.00
74868;BME280;63419;42.262;12.210;2023-07-31T11:48:37;96959.09;;;39.40;100.00
74868;BME280;63419;42.262;12.210;2023-07-31T11:51:09;96946.34;;;41.06;100.00
74868;BME280;63419;42.262;12.210;2023-07-31T11:54:07;96998.22;;;37.67;100.00
74868;BME280;63419;42.262;12.210;2023-07-31T11:56:34;97002.97;;;37.11;100.00
74868;BME280;63419;42.262;12.210;2023-07-31T11:59:02;96983.16;;;38.09;100.00
74868;BME280;63419;42.262;12.210;2023-07-31T12:01:31;96933.53;;;40.30;100.00
74868;BME280;63419;42.262;12.210;2023-07-31T12:03:58;96960.38;;;38.96;100.00
74868;BME280;63419;42.262;12.210;2023-07-31T12:06:43;96885.94;;;43.46;100.00
74868;BME280;63419;42.262;12.210;2023-07-31T12:09:10;96904.94;;;42.99;100.00
74868;BME280;63419;42.262;12.210;2023-07-31T12:11:55;96918.41;;;41.59;100.00
74868;BME280;63419;42.262;12.210;2023-07-31T12:14:26;96877.38;;;44.07;100.00
74868;BME280;63419;42.262;12.210;2023-07-31T12:16:59;96809.19;;;48.90;100.00
74868;BME280;63419;42.262;12.210;2023-07-31T12:19:29;96861.28;;;45.02;100.00
74868;BME280;63419;42.262;12.210;2023-07-31T12:21:59;96846.31;;;46.83;100.00
74868;BME280;63419;42.262;12.210;2023-07-31T12:24:27;96824.63;;;48.13;100.00
74868;BME280;63419;42.262;12.210;2023-07-31T12:26:54;96809.94;;;49.37;100.00
74868;BME280;63419;42.262;12.210;2023-07-31T12:29:22;96785.78;;;50.92;93.41
74868;BME280;63419;42.262;12.210;2023-07-31T12:31:49;96832.38;;;47.91;100.00
74868;BME280;63419;42.262;12.210;2023-07-31T12:34:18;96914.19;;;41.76;100.00
74868;BME280;63419;42.262;12.210;2023-07-31T12:36:46;96923.75;;;40.57;100.00
74868;BME280;63419;42.262;12.210;2023-07-31T12:39:15;96882.41;;;43.97;100.00
74868;BME280;63419;42.262;12.210;2023-07-31T12:41:42;96890.91;;;42.97;100.00
74868;BME280;63419;42.262;12.210;2023-07-31T12:44:27;96844.25;;;45.79;100.00
74868;BME280;63419;42.262;12.210;2023-07-31T12:46:54;96824.63;;;47.93;98.77
74868;BME280;63419;42.262;12.210;2023-07-31T12:49:20;96833.81;;;46.98;99.33
74868;BME280;63419;42.262;12.210;2023-07-31T12:51:47;96821.88;;;47.74;100.00
74868;BME280;63419;42.262;12.210;2023-07-31T12:54:14;96872.72;;;43.66;100.00